Time;durP1;ratioP1;P1;durP2;ratioP2;P2;SDS_P1;SDS_P2;PMS_P1;PMS_P2;Temp;Humidity;BMP_temperature;BMP_pressure;BME280_temperature;BME280_humidity;BME280_pressure;Samples;Min_cycle;Max_cycle;Signal;HPM_P1;HPM_P2
2023/10/11 00:06:05;;;;;;;7.97;3.92;;;17.20;99.90;;;;;;4972243;28;20309;-48
2023/10/11 00:08:39;;;;;;;10.38;3.75;;;17.30;99.90;;;;;;5040756;28;20201;-52
2023/10/11 00:11:07;;;;;;;6.80;4.05;;;17.10;99.90;;;;;;5073535;28;20197;-50
2023/10/11 00:13:33;;;;;;;7.82;3.63;;;17.20;99.90;;;;;;5073647;28;20177;-48
2023/10/11 00:16:07;;;;;;;12.60;4.55;;;17.30;99.90;;;;;;5073609;28;20181;-48
2023/10/11 00:18:34;;;;;;;10.40;4.65;;;17.40;99.90;;;;;;5073856;28;20170;-49
2023/10/11 00:21:02;;;;;;;10.13;4.20;;;17.50;99.90;;;;;;5073719;28;20206;-49
2023/10/11 00:23:31;;;;;;;10.80;4.15;;;17.60;99.90;;;;;;5073549;28;20185;-50
2023/10/11 00:26:00;;;;;;;10.15;4.30;;;17.50;99.90;;;;;;5073397;28;20244;-48
2023/10/11 00:28:26;;;;;;;8.68;4.65;;;17.60;99.90;;;;;;5073827;28;20534;-49
2023/10/11 00:30:58;;;;;;;9.68;4.40;;;17.50;99.90;;;;;;5073726;28;20274;-51
2023/10/11 00:33:24;;;;;;;9.80;4.30;;;17.50;99.90;;;;;;5055725;28;20217;-49
2023/10/11 00:35:50;;;;;;;6.30;3.78;;;17.50;99.90;;;;;;5073470;28;20200;-49
2023/10/11 00:38:20;;;;;;;11.75;4.18;;;17.50;99.90;;;;;;5073128;28;20162;-51
2023/10/11 00:41:00;;;;;;;8.50;4.07;;;17.50;99.90;;;;;;5072908;28;20205;-52
2023/10/11 00:43:37;;;;;;;7.97;4.05;;;17.50;99.90;;;;;;5073277;28;20217;-49
2023/10/11 00:46:09;;;;;;;13.27;3.95;;;17.40;99.90;;;;;;5073183;28;20613;-50
2023/10/11 00:48:51;;;;;;;10.60;4.25;;;17.40;99.90;;;;;;5072894;28;20162;-51
2023/10/11 00:51:23;;;;;;;6.97;4.15;;;17.50;99.90;;;;;;5072963;28;20243;-52
2023/10/11 00:53:50;;;;;;;11.57;4.22;;;17.50;99.90;;;;;;5073090;28;20227;-49
2023/10/11 00:56:16;;;;;;;9.55;3.88;;;17.40;99.90;;;;;;5072719;28;20207;-50
2023/10/11 00:58:43;;;;;;;14.82;4.78;;;17.40;99.90;;;;;;5072397;28;20687;-49
2023/10/11 01:01:10;;;;;;;7.60;4.25;;;17.40;99.90;;;;;;5072617;28;20208;-51
2023/10/11 01:03:41;;;;;;;11.63;4.75;;;17.40;99.90;;;;;;5055031;28;20545;-50
2023/10/11 01:06:09;;;;;;;9.18;4.57;;;17.40;99.90;;;;;;5072217;28;20166;-49
2023/10/11 01:08:40;;;;;;;8.23;3.95;;;17.50;99.90;;;;;;5072498;28;20161;-48
2023/10/11 01:11:13;;;;;;;12.80;4.93;;;17.50;99.90;;;;;;5072710;28;20190;-50
2023/10/11 01:13:40;;;;;;;11.38;4.57;;;17.50;99.90;;;;;;5054749;28;20249;-49
2023/10/11 01:16:14;;;;;;;15.20;4.63;;;17.50;99.90;;;;;;5071980;28;20181;-49
2023/10/11 01:18:40;;;;;;;14.00;4.28;;;17.50;99.90;;;;;;5072559;28;20166;-49
2023/10/11 01:21:07;;;;;;;11.80;4.25;;;17.50;99.90;;;;;;5072432;28;20219;-50
2023/10/11 01:23:34;;;;;;;11.32;4.45;;;17.50;99.90;;;;;;5072521;28;20166;-51
2023/10/11 01:26:07;;;;;;;14.20;4.72;;;17.50;99.90;;;;;;5072458;28;20170;-49
2023/10/11 01:28:37;;;;;;;13.25;4.25;;;17.60;99.90;;;;;;5072099;28;20158;-49
2023/10/11 01:31:08;;;;;;;12.82;4.45;;;17.50;99.90;;;;;;5072200;28;20522;-50
2023/10/11 01:33:40;;;;;;;13.00;4.68;;;17.50;99.90;;;;;;5072025;28;20162;-49
2023/10/11 01:36:10;;;;;;;13.50;5.22;;;17.50;99.90;;;;;;5072235;28;20242;-48
2023/10/11 01:38:47;;;;;;;9.50;4.68;;;17.60;99.90;;;;;;5072067;28;20559;-49
2023/10/11 01:41:20;;;;;;;7.32;4.75;;;17.60;99.90;;;;;;5071825;28;20212;-49
2023/10/11 01:43:46;;;;;;;13.70;4.50;;;17.70;99.90;;;;;;5071941;28;20868;-51
2023/10/11 01:46:27;;;;;;;10.45;4.30;;;17.80;99.90;;;;;;5071679;28;20210;-50
2023/10/11 01:48:54;;;;;;;14.82;4.32;;;17.80;99.90;;;;;;5054384;28;20174;-50
2023/10/11 01:51:30;;;;;;;9.30;3.90;;;17.80;99.90;;;;;;5072038;28;20173;-49
2023/10/11 01:53:57;;;;;;;13.07;4.50;;;17.80;99.90;;;;;;5072191;28;20173;-49
2023/10/11 01:56:26;;;;;;;12.68;5.07;;;17.80;99.90;;;;;;5072333;28;20174;-49
2023/10/11 01:59:01;;;;;;;11.82;5.05;;;17.70;99.90;;;;;;5072110;28;20178;-48
2023/10/11 02:01:30;;;;;;;8.85;4.22;;;17.80;99.90;;;;;;5071946;28;20211;-48
2023/10/11 02:03:58;;;;;;;8.82;4.32;;;17.80;99.90;;;;;;5072063;28;20188;-49
2023/10/11 02:06:25;;;;;;;13.45;4.60;;;17.80;99.90;;;;;;5072072;28;20502;-48
2023/10/11 02:08:51;;;;;;;13.15;5.45;;;17.70;99.90;;;;;;5072024;28;20518;-48
2023/10/11 02:11:23;;;;;;;11.18;5.03;;;17.70;99.90;;;;;;5071576;28;20164;-48
2023/10/11 02:13:49;;;;;;;12.15;5.05;;;17.70;99.90;;;;;;5071587;28;20173;-48
2023/10/11 02:16:15;;;;;;;13.05;4.22;;;17.60;99.90;;;;;;5071443;28;20643;-48
2023/10/11 02:18:41;;;;;;;8.73;4.53;;;17.50;99.90;;;;;;5071440;28;20202;-48
2023/10/11 02:21:07;;;;;;;13.55;5.10;;;17.60;99.90;;;;;;5071463;28;20665;-48
2023/10/11 02:23:42;;;;;;;14.73;5.03;;;17.60;99.90;;;;;;5071461;28;20166;-48
2023/10/11 02:26:12;;;;;;;12.57;5.10;;;17.60;99.90;;;;;;5071355;28;20165;-49
2023/10/11 02:28:41;;;;;;;14.95;4.43;;;17.50;99.90;;;;;;5070638;28;20162;-48
2023/10/11 02:31:07;;;;;;;8.20;4.30;;;17.50;99.90;;;;;;5071254;28;20261;-49
2023/10/11 02:33:34;;;;;;;11.27;4.63;;;17.50;99.90;;;;;;5071395;28;20173;-48
2023/10/11 02:36:08;;;;;;;12.00;4.90;;;17.50;99.90;;;;;;5071597;28;20185;-48
2023/10/11 02:38:47;;;;;;;14.05;4.57;;;17.50;99.90;;;;;;5071591;28;20197;-48
2023/10/11 02:41:13;;;;;;;10.68;4.63;;;17.40;99.90;;;;;;5070982;28;20206;-48
2023/10/11 02:43:48;;;;;;;13.48;4.57;;;17.40;99.90;;;;;;5071230;28;20185;-48
2023/10/11 02:46:15;;;;;;;10.95;4.65;;;17.40;99.90;;;;;;5071242;28;20304;-48
2023/10/11 02:48:48;;;;;;;9.70;4.45;;;17.40;99.90;;;;;;5071108;28;20166;-48
2023/10/11 02:51:17;;;;;;;13.57;4.50;;;17.40;99.90;;;;;;5071391;28;20647;-49
2023/10/11 02:53:46;;;;;;;12.23;4.45;;;17.40;99.90;;;;;;5053195;28;20629;-48
2023/10/11 02:56:14;;;;;;;18.92;4.65;;;17.40;99.90;;;;;;5071200;28;20170;-49
2023/10/11 02:58:39;;;;;;;9.02;3.97;;;17.40;99.90;;;;;;5071122;28;20178;-49
2023/10/11 03:01:15;;;;;;;7.03;4.35;;;17.50;99.90;;;;;;5052519;28;20217;-48
2023/10/11 03:03:44;;;;;;;12.05;4.03;;;17.40;99.90;;;;;;5071164;28;20216;-48
2023/10/11 03:06:10;;;;;;;10.30;4.78;;;;;;;;;;5071043;28;20169;-48
2023/10/11 03:08:40;;;;;;;14.60;3.85;;;17.50;99.90;;;;;;5071101;28;20648;-48
2023/10/11 03:11:15;;;;;;;11.93;5.03;;;17.50;99.90;;;;;;5054097;28;20192;-48
2023/10/11 03:13:42;;;;;;;11.55;4.28;;;17.50;99.90;;;;;;5070912;28;20233;-48
2023/10/11 03:16:13;;;;;;;8.95;4.15;;;17.40;99.90;;;;;;5071006;28;20177;-48
2023/10/11 03:18:40;;;;;;;8.68;4.40;;;17.40;99.90;;;;;;5071109;28;20198;-48
2023/10/11 03:21:17;;;;;;;16.77;4.28;;;17.40;99.90;;;;;;5071022;28;20229;-48
2023/10/11 03:23:45;;;;;;;11.43;4.25;;;17.30;99.90;;;;;;5071097;28;20243;-48
2023/10/11 03:28:59;;;;;;;13.77;4.68;;;;;;;;;;5070770;28;20229;-49
2023/10/11 03:31:29;;;;;;;8.75;4.32;;;17.30;99.90;;;;;;5071308;28;20256;-49
2023/10/11 03:33:56;;;;;;;11.80;4.40;;;17.30;99.90;;;;;;5071258;28;20177;-49
2023/10/11 03:36:28;;;;;;;11.85;4.45;;;17.30;99.90;;;;;;5071313;28;20170;-48
2023/10/11 03:38:54;;;;;;;12.30;4.63;;;;;;;;;;5072468;28;20629;-48
2023/10/11 03:41:30;;;;;;;9.10;4.55;;;17.20;99.90;;;;;;5074106;28;20212;-48
2023/10/11 03:44:07;;;;;;;10.85;4.80;;;17.20;99.90;;;;;;5074417;28;20249;-49
2023/10/11 03:46:35;;;;;;;11.18;4.15;;;17.20;99.90;;;;;;5074017;28;20214;-49
2023/10/11 03:51:43;;;;;;;9.57;4.38;;;17.10;99.90;;;;;;5074351;28;20166;-48
2023/10/11 03:54:18;;;;;;;15.07;4.20;;;17.10;99.90;;;;;;5074217;28;20219;-48
2023/10/11 03:56:45;;;;;;;11.20;4.07;;;17.10;99.90;;;;;;5073882;28;20633;-48
2023/10/11 03:59:12;;;;;;;13.02;4.60;;;17.10;99.90;;;;;;5073887;28;20205;-48
2023/10/11 04:01:38;;;;;;;7.90;4.70;;;17.10;99.90;;;;;;5073794;28;20205;-48
2023/10/11 04:04:05;;;;;;;14.80;4.72;;;17.00;99.90;;;;;;5074062;28;20637;-48
2023/10/11 04:06:34;;;;;;;8.75;4.18;;;17.00;99.90;;;;;;5073748;28;20521;-48
2023/10/11 04:09:03;;;;;;;11.38;4.90;;;17.00;99.90;;;;;;5056083;28;20162;-48
2023/10/11 04:14:24;;;;;;;11.05;4.30;;;16.90;99.90;;;;;;5073823;28;20245;-49
2023/10/11 04:16:52;;;;;;;17.30;4.43;;;16.90;99.90;;;;;;5073668;28;20254;-48
2023/10/11 04:19:21;;;;;;;8.82;3.90;;;16.90;99.90;;;;;;5073390;28;20249;-48
2023/10/11 04:24:19;;;;;;;11.15;4.22;;;16.90;99.90;;;;;;5073749;28;20249;-48
2023/10/11 04:27:45;;;;;;;12.27;4.28;;;16.90;99.90;;;;;;5073583;28;21217;-49
2023/10/11 04:29:44;;;;;;;10.57;4.20;;;16.90;99.90;;;;;;5073029;28;20331;-48
2023/10/11 04:32:13;;;;;;;8.23;3.60;;;16.90;99.90;;;;;;5073621;28;20169;-48
2023/10/11 04:34:47;;;;;;;11.82;4.05;;;17.00;99.90;;;;;;5073118;28;20178;-49
2023/10/11 04:37:27;;;;;;;12.27;4.35;;;17.00;99.90;;;;;;5073464;28;20260;-48
2023/10/11 04:40:00;;;;;;;11.40;4.35;;;17.00;99.90;;;;;;5073709;28;20198;-48
2023/10/11 04:42:29;;;;;;;13.50;4.30;;;17.00;99.90;;;;;;5073269;28;20170;-48
2023/10/11 04:44:56;;;;;;;10.93;4.20;;;;;;;;;;5073470;28;20170;-48
2023/10/11 04:47:25;;;;;;;9.35;4.30;;;17.00;99.90;;;;;;5073302;28;20619;-48
2023/10/11 04:49:54;;;;;;;12.32;4.90;;;17.00;99.90;;;;;;5073027;28;20249;-48
2023/10/11 04:52:23;;;;;;;9.25;4.03;;;16.90;99.90;;;;;;5073110;28;20276;-48
2023/10/11 04:54:54;;;;;;;8.95;4.30;;;16.90;99.90;;;;;;5072846;28;20195;-48
2023/10/11 04:57:40;;;;;;;13.43;4.47;;;16.90;99.90;;;;;;5073447;28;20189;-48
2023/10/11 05:00:11;;;;;;;17.80;4.35;;;16.90;99.90;;;;;;5072887;28;20209;-48
2023/10/11 05:02:38;;;;;;;9.98;4.40;;;17.00;99.90;;;;;;5072553;28;20205;-48
2023/10/11 05:05:10;;;;;;;12.40;3.90;;;16.90;99.90;;;;;;5072902;28;20261;-48
2023/10/11 05:07:42;;;;;;;8.65;4.25;;;16.90;99.90;;;;;;5072629;28;20169;-48
2023/10/11 05:13:05;;;;;;;15.32;4.10;;;16.90;99.90;;;;;;5073242;28;20177;-48
2023/10/11 05:15:42;;;;;;;8.13;4.15;;;16.90;99.90;;;;;;5072435;28;20185;-48
2023/10/11 05:18:09;;;;;;;13.57;4.30;;;16.80;99.90;;;;;;5072673;28;20169;-48
2023/10/11 05:23:06;;;;;;;11.07;4.43;;;16.80;99.90;;;;;;5072544;28;20518;-48
2023/10/11 05:26:34;;;;;;;12.95;4.53;;;16.70;99.90;;;;;;5072499;28;20170;-48
2023/10/11 05:34:12;;;;;;;10.13;4.32;;;16.60;99.90;;;;;;5027514;28;20189;-48
2023/10/11 05:50:50;;;;;;;11.25;4.45;;;16.60;99.90;;;;;;5072051;28;20252;-48
2023/10/11 05:50:50;;;;;;;9.65;4.40;;;16.80;99.90;;;;;;5071802;28;20172;-48
2023/10/11 05:53:18;;;;;;;10.88;4.15;;;16.80;99.90;;;;;;5071715;28;20166;-48
2023/10/11 05:55:43;;;;;;;12.05;3.80;;;16.80;99.90;;;;;;5071999;28;20378;-48
2023/10/11 05:58:09;;;;;;;12.88;4.25;;;16.90;99.90;;;;;;5071771;28;20203;-48
2023/10/11 06:00:38;;;;;;;9.23;3.83;;;16.90;99.90;;;;;;5071714;28;20225;-48
2023/10/11 06:03:05;;;;;;;10.07;4.00;;;17.00;99.90;;;;;;5071770;28;20178;-48
2023/10/11 06:05:39;;;;;;;8.52;4.28;;;17.00;99.90;;;;;;5071552;28;20154;-48
2023/10/11 06:08:06;;;;;;;11.95;3.40;;;17.00;99.90;;;;;;5071508;28;20695;-49
2023/10/11 06:10:41;;;;;;;7.57;3.65;;;17.00;99.90;;;;;;5071627;28;20223;-50
2023/10/11 06:13:13;;;;;;;7.18;3.60;;;17.10;99.90;;;;;;5071452;28;20629;-48
2023/10/11 06:16:01;;;;;;;6.82;3.53;;;17.20;99.90;;;;;;5071728;28;20178;-49
2023/10/11 06:18:42;;;;;;;9.73;4.50;;;17.20;99.90;;;;;;5071823;28;20235;-48
2023/10/11 06:21:30;;;;;;;9.80;3.85;;;17.20;99.90;;;;;;5071259;28;20197;-49
2023/10/11 06:24:05;;;;;;;9.93;3.78;;;17.30;99.90;;;;;;5071657;28;20599;-48
2023/10/11 06:29:03;;;;;;;10.40;4.30;;;17.30;99.90;;;;;;5071598;28;20235;-49
2023/10/11 06:31:39;;;;;;;9.48;4.72;;;17.40;99.90;;;;;;5071496;28;20162;-49
2023/10/11 06:34:26;;;;;;;10.25;4.18;;;17.40;99.90;;;;;;5071537;28;20200;-49
2023/10/11 06:36:53;;;;;;;11.43;4.50;;;17.50;99.90;;;;;;5072001;28;20517;-49
2023/10/11 06:44:59;;;;;;;10.23;3.90;;;17.50;99.90;;;;;;5071502;28;20180;-48
2023/10/11 06:47:35;;;;;;;7.32;4.30;;;17.50;99.90;;;;;;5071064;28;20629;-48
2023/10/11 06:50:11;;;;;;;7.88;4.30;;;17.50;99.90;;;;;;5071155;28;20176;-48
2023/10/11 06:52:43;;;;;;;10.15;4.03;;;17.60;99.90;;;;;;5071357;28;20181;-48
2023/10/11 06:57:52;;;;;;;12.65;4.70;;;17.70;99.90;;;;;;5071383;28;20212;-48
2023/10/11 07:00:27;;;;;;;9.30;4.40;;;17.70;99.90;;;;;;5070939;28;20212;-48
2023/10/11 07:03:08;;;;;;;19.48;4.88;;;17.80;99.90;;;;;;5071509;28;20185;-48
2023/10/11 07:05:40;;;;;;;12.55;5.15;;;17.80;99.90;;;;;;5071039;28;20599;-48
2023/10/11 07:08:10;;;;;;;15.18;4.30;;;18.00;99.90;;;;;;5071162;28;20170;-48
2023/10/11 07:10:40;;;;;;;10.10;4.88;;;18.00;99.90;;;;;;5071047;28;20253;-49
2023/10/11 07:13:12;;;;;;;12.00;4.85;;;18.10;99.90;;;;;;5071239;28;20689;-49
2023/10/11 07:15:47;;;;;;;8.75;4.47;;;18.20;99.90;;;;;;5074892;28;20174;-48
2023/10/11 07:18:25;;;;;;;12.07;4.55;;;18.20;99.90;;;;;;5056690;28;20169;-48
2023/10/11 07:21:10;;;;;;;13.68;5.07;;;18.30;99.90;;;;;;5075196;28;20240;-48
2023/10/11 07:26:48;;;;;;;13.48;5.30;;;18.40;99.90;;;;;;5074781;28;20228;-48
2023/10/11 07:29:13;;;;;;;13.98;5.30;;;18.50;99.90;;;;;;5074206;28;20581;-49
2023/10/11 07:31:49;;;;;;;10.68;4.75;;;18.50;99.90;;;;;;5074709;28;20269;-49
2023/10/11 07:34:18;;;;;;;9.68;4.82;;;18.60;99.90;;;;;;5074636;28;20170;-48
2023/10/11 07:36:45;;;;;;;12.60;5.13;;;18.70;99.90;;;;;;5074671;28;20166;-50
2023/10/11 07:39:15;;;;;;;11.65;4.65;;;18.70;99.90;;;;;;5074556;28;20169;-49
2023/10/11 07:41:42;;;;;;;8.63;4.05;;;18.80;99.90;;;;;;5074533;28;20410;-49
2023/10/11 07:44:08;;;;;;;7.60;4.10;;;18.90;99.90;;;;;;5074530;28;20162;-49
2023/10/11 07:46:37;;;;;;;10.52;4.15;;;18.90;99.90;;;;;;5074144;28;20224;-49
2023/10/11 07:49:03;;;;;;;10.65;4.30;;;19.00;99.90;;;;;;5074460;28;20204;-51
2023/10/11 07:51:30;;;;;;;9.35;4.15;;;19.10;99.90;;;;;;5073861;28;20246;-50
2023/10/11 07:53:55;;;;;;;10.52;4.03;;;19.30;99.90;;;;;;5073791;28;20199;-52
2023/10/11 07:56:21;;;;;;;14.73;4.78;;;19.40;99.90;;;;;;5074434;28;20158;-49
2023/10/11 07:58:47;;;;;;;9.10;3.53;;;19.40;99.90;;;;;;5073960;28;20644;-51
2023/10/11 08:01:30;;;;;;;7.20;4.35;;;19.60;99.90;;;;;;5073905;28;20206;-48
2023/10/11 08:03:57;;;;;;;8.30;4.00;;;19.60;99.90;;;;;;5073776;28;20172;-48
2023/10/11 08:06:26;;;;;;;10.00;4.70;;;19.70;99.90;;;;;;5074288;28;20169;-50
2023/10/11 08:09:00;;;;;;;10.45;4.68;;;19.80;99.90;;;;;;5074226;28;20220;-49
2023/10/11 08:11:52;;;;;;;10.30;3.88;;;19.90;99.90;;;;;;5073706;28;20621;-52
2023/10/11 08:14:22;;;;;;;9.40;4.07;;;20.00;99.90;;;;;;5073693;28;20895;-49
2023/10/11 08:16:51;;;;;;;18.63;4.93;;;20.10;99.90;;;;;;5073256;28;20166;-49
2023/10/11 08:19:18;;;;;;;7.78;3.90;;;20.20;99.90;;;;;;5055117;28;20174;-50
2023/10/11 08:21:57;;;;;;;9.68;3.78;;;20.20;99.90;;;;;;5073432;28;20735;-49
2023/10/11 08:24:30;;;;;;;12.55;3.55;;;20.20;99.90;;;;;;5073435;28;20168;-49
2023/10/11 08:27:06;;;;;;;12.07;4.40;;;20.30;99.90;;;;;;5072749;28;20257;-51
2023/10/11 08:29:32;;;;;;;11.20;4.45;;;20.30;99.90;;;;;;5072315;28;20219;-51
2023/10/11 08:31:58;;;;;;;7.35;3.70;;;20.40;99.90;;;;;;5073279;28;20621;-48
2023/10/11 08:34:25;;;;;;;11.10;4.63;;;20.50;99.90;;;;;;5073390;28;20220;-48
2023/10/11 08:36:54;;;;;;;10.52;4.13;;;20.60;99.90;;;;;;5073798;28;20185;-50
2023/10/11 08:39:26;;;;;;;11.77;4.05;;;20.60;99.90;;;;;;5073652;28;20173;-49
2023/10/11 08:41:55;;;;;;;14.77;4.63;;;20.60;99.90;;;;;;5073712;28;20268;-51
2023/10/11 08:44:26;;;;;;;7.72;3.85;;;20.60;99.90;;;;;;5055474;28;20511;-51
2023/10/11 08:46:53;;;;;;;8.77;4.15;;;20.80;99.90;;;;;;5073200;28;20221;-49
2023/10/11 08:49:19;;;;;;;7.40;4.15;;;20.80;99.90;;;;;;5072884;28;20172;-51
2023/10/11 08:51:44;;;;;;;12.45;4.60;;;20.90;99.90;;;;;;5072756;28;20584;-49
2023/10/11 08:54:11;;;;;;;12.82;4.72;;;20.90;99.90;;;;;;5072970;28;20593;-49
2023/10/11 08:56:38;;;;;;;11.73;4.22;;;21.00;99.90;;;;;;5072812;28;20158;-48
2023/10/11 08:59:05;;;;;;;10.25;4.28;;;21.00;99.90;;;;;;5072847;28;20228;-48
2023/10/11 09:01:36;;;;;;;8.70;4.22;;;21.10;99.90;;;;;;5072587;28;20241;-48
2023/10/11 09:04:13;;;;;;;11.82;4.03;;;21.20;99.90;;;;;;5072576;28;20181;-48
2023/10/11 09:06:46;;;;;;;9.73;4.03;;;21.20;99.90;;;;;;5072611;28;20672;-49
2023/10/11 09:09:33;;;;;;;12.68;4.07;;;21.30;99.90;;;;;;5072579;28;20665;-49
2023/10/11 09:11:59;;;;;;;7.45;3.97;;;21.40;99.90;;;;;;5072437;28;20176;-48
2023/10/11 09:14:28;;;;;;;6.65;4.13;;;21.40;99.90;;;;;;5072358;28;20178;-50
2023/10/11 09:16:57;;;;;;;10.88;3.92;;;21.50;99.90;;;;;;5073086;28;20172;-52
2023/10/11 09:19:23;;;;;;;6.95;4.07;;;21.50;99.90;;;;;;5055377;28;20175;-49
2023/10/11 09:22:04;;;;;;;12.82;4.22;;;21.60;99.90;;;;;;5072725;28;20209;-49
2023/10/11 09:24:41;;;;;;;10.02;4.28;;;21.60;99.90;;;;;;5072253;28;20201;-50
2023/10/11 09:29:52;;;;;;;6.78;3.92;;;21.80;99.90;;;;;;5072057;28;20154;-49
2023/10/11 09:32:27;;;;;;;7.57;3.97;;;21.90;99.90;;;;;;5072341;28;20577;-50
2023/10/11 09:34:54;;;;;;;8.75;3.63;;;;;;;;;;5072522;28;20166;-48
2023/10/11 09:37:20;;;;;;;8.05;3.75;;;22.00;99.90;;;;;;5072379;28;20181;-49
2023/10/11 09:39:46;;;;;;;6.53;3.75;;;22.10;99.90;;;;;;5071870;28;20256;-48
2023/10/11 09:42:22;;;;;;;5.97;3.50;;;22.10;99.90;;;;;;5071932;28;20174;-48
2023/10/11 09:44:52;;;;;;;7.90;3.78;;;22.20;99.90;;;;;;5072156;28;20188;-48
2023/10/11 09:47:18;;;;;;;9.77;3.90;;;22.20;99.90;;;;;;5071715;28;20214;-48
2023/10/11 09:49:47;;;;;;;12.23;4.28;;;22.30;99.90;;;;;;5072073;28;20166;-49
2023/10/11 09:52:23;;;;;;;6.80;4.03;;;22.50;99.90;;;;;;5072068;28;20185;-49
2023/10/11 09:54:50;;;;;;;7.38;3.78;;;22.50;99.90;;;;;;5072207;28;20154;-49
2023/10/11 09:57:35;;;;;;;7.10;3.90;;;22.60;99.90;;;;;;5071730;28;20184;-48
2023/10/11 10:00:09;;;;;;;17.60;4.32;;;22.70;99.90;;;;;;5071629;28;20181;-48
2023/10/11 10:02:37;;;;;;;8.40;4.00;;;22.70;99.90;;;;;;5071681;28;20291;-49
2023/10/11 10:05:05;;;;;;;7.68;3.42;;;22.70;99.90;;;;;;5071910;28;20248;-49
2023/10/11 10:07:44;;;;;;;8.60;3.80;;;22.80;99.90;;;;;;5071837;28;20224;-48
2023/10/11 10:10:11;;;;;;;10.10;4.30;;;22.90;99.90;;;;;;5071481;28;20249;-48
2023/10/11 10:12:42;;;;;;;11.13;3.58;;;23.00;99.90;;;;;;5071487;28;20162;-49
2023/10/11 10:15:23;;;;;;;15.48;4.05;;;22.90;99.90;;;;;;5071681;28;20205;-48
2023/10/11 10:17:57;;;;;;;9.85;4.22;;;23.00;99.90;;;;;;5071961;28;20169;-48
2023/10/11 10:20:41;;;;;;;7.00;3.63;;;23.00;99.90;;;;;;5071711;28;20565;-51
2023/10/11 10:23:20;;;;;;;9.45;3.40;;;22.90;99.90;;;;;;5071670;28;20260;-49
2023/10/11 10:25:46;;;;;;;8.63;3.63;;;23.00;99.90;;;;;;5071364;28;20154;-48
2023/10/11 10:28:36;;;;;;;8.05;3.97;;;22.90;99.90;;;;;;5071413;28;20181;-49
2023/10/11 10:31:18;;;;;;;8.75;3.92;;;23.00;99.90;;;;;;5071584;28;20219;-51
2023/10/11 10:33:51;;;;;;;8.90;3.80;;;23.10;99.90;;;;;;5071334;28;20204;-49
2023/10/11 10:36:28;;;;;;;9.00;4.07;;;23.00;99.90;;;;;;5071549;28;20201;-51
2023/10/11 10:39:00;;;;;;;11.32;4.50;;;23.20;99.90;;;;;;5071198;28;20177;-51
2023/10/11 10:41:33;;;;;;;8.77;4.28;;;23.20;99.90;;;;;;5071376;28;20255;-49
2023/10/11 10:44:18;;;;;;;7.97;4.38;;;23.20;99.90;;;;;;5071303;28;20192;-52
2023/10/11 10:46:52;;;;;;;8.25;3.92;;;23.40;99.90;;;;;;5071161;28;20231;-52
2023/10/11 10:49:41;;;;;;;8.68;4.10;;;23.40;99.90;;;;;;5073382;28;20690;-52
2023/10/11 10:52:21;;;;;;;5.63;3.55;;;23.70;99.90;;;;;;5075204;28;20231;-52
2023/10/11 10:55:05;;;;;;;10.50;4.38;;;23.70;99.90;;;;;;5075480;28;20235;-50
2023/10/11 10:57:32;;;;;;;7.47;3.63;;;23.60;99.90;;;;;;5075181;28;20493;-49
2023/10/11 11:00:21;;;;;;;11.43;4.57;;;23.60;99.90;;;;;;5074977;28;20192;-49
2023/10/11 11:02:47;;;;;;;7.22;4.00;;;23.60;99.90;;;;;;5056941;28;20182;-49
2023/10/11 11:05:18;;;;;;;10.25;4.03;;;23.60;99.90;;;;;;5056979;28;20173;-52
2023/10/11 11:07:49;;;;;;;11.13;4.25;;;23.40;99.90;;;;;;5058150;28;20177;-50
2023/10/11 11:10:20;;;;;;;10.23;4.68;;;23.50;99.90;;;;;;5074921;28;20200;-51
2023/10/11 11:12:49;;;;;;;7.13;3.88;;;23.60;99.90;;;;;;5075046;28;20177;-52
2023/10/11 11:15:20;;;;;;;8.10;3.67;;;23.60;99.90;;;;;;5075037;28;20177;-50
2023/10/11 11:17:51;;;;;;;5.57;3.63;;;23.70;99.90;;;;;;5074690;28;20162;-50
2023/10/11 11:22:46;;;;;;;7.28;3.60;;;23.80;99.90;;;;;;5074858;28;20207;-49
2023/10/11 11:25:18;;;;;;;9.18;4.10;;;23.80;99.90;;;;;;5074875;28;20169;-49
2023/10/11 11:27:44;;;;;;;10.32;3.85;;;23.70;99.90;;;;;;5074463;28;20174;-49
2023/10/11 11:30:33;;;;;;;8.48;3.97;;;23.70;99.90;;;;;;5074518;28;20176;-49
2023/10/11 11:32:59;;;;;;;9.75;3.63;;;23.60;99.90;;;;;;5059534;28;20632;-48
2023/10/11 11:35:28;;;;;;;12.20;4.63;;;23.60;99.90;;;;;;5074617;28;20177;-48
2023/10/11 11:38:06;;;;;;;11.05;4.57;;;23.60;99.90;;;;;;5074614;28;20174;-48
2023/10/11 11:40:47;;;;;;;6.53;3.92;;;23.40;99.90;;;;;;5074277;28;20203;-48
2023/10/11 11:43:17;;;;;;;14.27;4.20;;;23.30;99.90;;;;;;5056534;28;20165;-48
2023/10/11 11:45:44;;;;;;;12.40;4.53;;;23.40;99.90;;;;;;5074231;28;20220;-49
2023/10/11 11:48:10;;;;;;;9.55;4.25;;;23.40;99.90;;;;;;5074286;28;20195;-49
2023/10/11 11:50:38;;;;;;;11.88;3.72;;;23.50;99.90;;;;;;5074046;28;20582;-49
2023/10/11 11:53:05;;;;;;;9.43;3.97;;;23.70;99.90;;;;;;5074048;28;20203;-48
2023/10/11 11:55:34;;;;;;;14.15;4.60;;;23.80;99.90;;;;;;5073514;28;20166;-51
2023/10/11 11:58:10;;;;;;;12.85;4.13;;;23.80;99.90;;;;;;5073624;28;20665;-51
2023/10/11 12:00:45;;;;;;;8.32;3.80;;;23.80;99.90;;;;;;5073031;28;20197;-50
2023/10/11 12:03:11;;;;;;;9.95;4.22;;;24.00;99.90;;;;;;5040155;28;20165;-52
2023/10/11 12:05:40;;;;;;;11.73;4.20;;;24.10;99.90;;;;;;5055788;28;20162;-49
2023/10/11 12:08:18;;;;;;;8.43;3.58;;;24.10;99.90;;;;;;5073822;28;20169;-52
2023/10/11 12:10:47;;;;;;;14.02;4.47;;;24.10;99.90;;;;;;5073163;28;20565;-50
2023/10/11 12:13:22;;;;;;;13.10;4.45;;;24.10;99.90;;;;;;5073369;28;20614;-52
2023/10/11 12:15:54;;;;;;;16.52;4.15;;;24.00;99.90;;;;;;5073657;28;20246;-52
2023/10/11 12:18:32;;;;;;;13.25;4.22;;;24.00;99.90;;;;;;5073457;28;20633;-52
2023/10/11 12:20:59;;;;;;;13.80;4.93;;;24.00;99.90;;;;;;5073196;28;20206;-52
2023/10/11 12:23:25;;;;;;;15.75;4.85;;;24.10;99.90;;;;;;5073338;28;20168;-52
2023/10/11 12:25:50;;;;;;;15.55;4.60;;;24.10;99.90;;;;;;5073312;28;20603;-52
2023/10/11 12:28:18;;;;;;;12.55;4.43;;;24.10;99.90;;;;;;5073110;28;20162;-52
2023/10/11 12:30:45;;;;;;;9.05;4.47;;;24.20;99.90;;;;;;5072567;28;20178;-53
2023/10/11 12:33:14;;;;;;;12.05;4.40;;;24.30;99.90;;;;;;5072962;28;20165;-53
2023/10/11 12:35:40;;;;;;;14.60;4.78;;;24.30;99.90;;;;;;5073146;28;20559;-53
2023/10/11 12:38:12;;;;;;;14.95;5.18;;;24.40;99.90;;;;;;5073209;28;20173;-53
2023/10/11 12:40:44;;;;;;;13.60;4.38;;;24.30;99.90;;;;;;5072479;28;20266;-52
2023/10/11 12:43:10;;;;;;;11.05;4.55;;;24.30;99.90;;;;;;5069189;28;20174;-53
2023/10/11 12:45:42;;;;;;;9.57;4.72;;;24.30;99.90;;;;;;5072532;28;20709;-53
2023/10/11 12:48:10;;;;;;;12.32;4.72;;;24.20;99.90;;;;;;5072762;28;20185;-53
2023/10/11 12:50:38;;;;;;;12.07;3.92;;;24.20;99.90;;;;;;5072796;28;20162;-53
2023/10/11 12:53:10;;;;;;;15.45;4.13;;;24.30;99.90;;;;;;5072734;28;20625;-53
2023/10/11 12:55:45;;;;;;;11.20;4.75;;;24.30;99.90;;;;;;5072397;28;20162;-50
2023/10/11 12:58:13;;;;;;;10.50;4.38;;;24.20;99.90;;;;;;5072825;28;20196;-50
2023/10/11 13:01:05;;;;;;;6.75;4.65;;;24.30;99.90;;;;;;5072434;28;20227;-48
2023/10/11 13:03:37;;;;;;;12.45;4.45;;;24.10;99.90;;;;;;5072465;28;20679;-48
2023/10/11 13:06:03;;;;;;;10.65;4.30;;;24.10;99.90;;;;;;5072366;28;20162;-50
2023/10/11 13:08:30;;;;;;;11.05;4.80;;;24.00;99.90;;;;;;5072388;28;20165;-49
2023/10/11 13:10:56;;;;;;;15.05;5.07;;;23.90;99.90;;;;;;5071616;28;20199;-48
2023/10/11 13:13:23;;;;;;;17.45;4.90;;;;;;;;;;5072858;28;20169;-50
2023/10/11 13:15:59;;;;;;;16.00;5.20;;;23.80;99.90;;;;;;5073119;28;20165;-49
2023/10/11 13:18:38;;;;;;;18.23;5.38;;;23.70;99.90;;;;;;5072443;28;20165;-49
2023/10/11 13:21:05;;;;;;;15.75;4.78;;;23.70;99.90;;;;;;5072306;28;20673;-49
2023/10/11 13:23:31;;;;;;;14.90;5.05;;;23.60;99.90;;;;;;5072413;28;20162;-49
2023/10/11 13:25:59;;;;;;;10.23;4.10;;;23.50;99.90;;;;;;5072337;28;20669;-49
2023/10/11 13:28:29;;;;;;;15.52;4.55;;;23.50;99.90;;;;;;5072267;28;20173;-49
2023/10/11 13:30:55;;;;;;;17.38;4.80;;;23.50;99.90;;;;;;5072012;28;20169;-50
2023/10/11 13:33:21;;;;;;;12.25;4.13;;;23.50;99.90;;;;;;5072493;28;20167;-49
2023/10/11 13:35:48;;;;;;;13.52;4.35;;;23.50;99.90;;;;;;5072246;28;20180;-49
2023/10/11 13:38:20;;;;;;;10.15;4.43;;;23.40;99.90;;;;;;5070735;28;20237;-53
2023/10/11 13:40:46;;;;;;;13.20;4.90;;;23.40;99.90;;;;;;5071616;28;20669;-52
2023/10/11 13:43:13;;;;;;;12.57;4.68;;;23.40;99.90;;;;;;5071709;28;20166;-52
2023/10/11 13:45:41;;;;;;;12.50;4.38;;;23.40;99.90;;;;;;5071704;28;20253;-53
2023/10/11 13:48:14;;;;;;;13.90;4.97;;;23.40;99.90;;;;;;5071619;28;20214;-52
2023/10/11 13:50:40;;;;;;;15.88;4.22;;;23.40;99.90;;;;;;5071745;28;20217;-52
2023/10/11 13:53:06;;;;;;;11.50;4.40;;;23.40;99.90;;;;;;5072022;28;20224;-52
2023/10/11 13:55:42;;;;;;;17.67;4.72;;;23.40;99.90;;;;;;5071754;28;20166;-52
2023/10/11 13:58:09;;;;;;;18.27;4.30;;;23.40;99.90;;;;;;5071610;28;20162;-52
2023/10/11 14:05:45;;;;;;;11.02;4.50;;;23.40;99.90;;;;;;5071895;28;20224;-52